Time;durP1;ratioP1;P1;durP2;ratioP2;P2;SDS_P1;SDS_P2;PMS_P1;PMS_P2;Temp;Humidity;BMP_temperature;BMP_pressure;BME280_temperature;BME280_humidity;BME280_pressure;Samples;Min_cycle;Max_cycle;Signal;HPM_P1;HPM_P2
2021/05/03 00:01:32;;;;;;;7.15;3.75;;;4.50;79.40;;;;;;5093922;28;20472;-35
2021/05/03 00:03:57;;;;;;;7.07;4.93;;;4.30;80.20;;;;;;5093895;28;20028;-35
2021/05/03 00:06:23;;;;;;;8.85;4.13;;;4.20;80.30;;;;;;5093625;28;20073;-35
2021/05/03 00:08:48;;;;;;;5.47;4.28;;;4.20;80.50;;;;;;5093934;28;20031;-35
2021/05/03 00:11:14;;;;;;;7.90;3.83;;;4.30;80.70;;;;;;5093746;28;20480;-36
2021/05/03 00:13:40;;;;;;;7.63;4.82;;;4.30;80.50;;;;;;5093872;28;20028;-35
2021/05/03 00:16:05;;;;;;;6.22;4.47;;;4.40;80.10;;;;;;5093504;28;20467;-35
2021/05/03 00:18:31;;;;;;;5.78;4.18;;;4.30;80.70;;;;;;5093078;28;20143;-36
2021/05/03 00:20:57;;;;;;;7.72;4.55;;;4.30;80.70;;;;;;5093682;28;20379;-36
2021/05/03 00:23:23;;;;;;;9.90;5.43;;;4.30;80.70;;;;;;5093445;28;20016;-37
2021/05/03 00:25:48;;;;;;;6.20;4.75;;;4.30;81.00;;;;;;5093378;28;20112;-37
2021/05/03 00:28:14;;;;;;;6.40;4.43;;;4.30;81.20;;;;;;5096262;28;20050;-37
2021/05/03 00:30:40;;;;;;;7.95;5.40;;;4.30;81.00;;;;;;5096393;28;20020;-37
2021/05/03 00:33:06;;;;;;;10.55;5.07;;;4.20;81.30;;;;;;5095893;28;20035;-37
2021/05/03 00:35:32;;;;;;;10.27;6.60;;;4.30;81.50;;;;;;5092494;28;20101;-37
2021/05/03 00:38:00;;;;;;;12.85;6.03;;;4.30;81.30;;;;;;5093425;28;20028;-38
2021/05/03 00:40:25;;;;;;;11.98;5.45;;;4.10;81.40;;;;;;5093555;28;20476;-36
2021/05/03 00:42:51;;;;;;;10.20;5.70;;;4.00;81.70;;;;;;5091838;28;20024;-37
2021/05/03 00:45:19;;;;;;;6.63;4.65;;;4.00;81.90;;;;;;5093066;28;20428;-39
2021/05/03 00:47:45;;;;;;;5.30;4.78;;;4.00;81.80;;;;;;5093847;28;20024;-37
2021/05/03 00:50:14;;;;;;;8.15;5.35;;;3.90;81.70;;;;;;5093372;28;20067;-36
2021/05/03 00:52:40;;;;;;;13.20;6.90;;;3.80;82.40;;;;;;5092835;28;20112;-37
2021/05/03 00:55:07;;;;;;;9.32;6.10;;;3.70;82.60;;;;;;5092960;28;20066;-37
2021/05/03 00:57:33;;;;;;;11.70;6.90;;;3.60;83.10;;;;;;5093041;28;20028;-37
2021/05/03 00:59:59;;;;;;;9.40;5.80;;;3.50;83.40;;;;;;5092965;28;20051;-37
2021/05/03 01:02:25;;;;;;;7.22;4.97;;;3.50;83.50;;;;;;5093129;28;20032;-36
2021/05/03 01:04:50;;;;;;;7.65;5.15;;;3.50;83.70;;;;;;5092943;28;20020;-36
2021/05/03 01:07:16;;;;;;;8.82;5.65;;;3.50;83.60;;;;;;5093172;28;20060;-36
2021/05/03 01:09:42;;;;;;;7.18;5.57;;;3.50;83.30;;;;;;5092969;28;20040;-36
2021/05/03 01:12:09;;;;;;;11.13;6.45;;;3.60;83.40;;;;;;5092962;28;20020;-36
2021/05/03 01:14:36;;;;;;;12.38;6.45;;;3.80;82.60;;;;;;5092701;28;20067;-37
2021/05/03 01:17:02;;;;;;;11.57;7.53;;;3.70;82.60;;;;;;5092820;28;20039;-37
2021/05/03 01:19:30;;;;;;;10.23;6.57;;;3.80;82.40;;;;;;5093100;28;20048;-37
2021/05/03 01:21:56;;;;;;;9.10;5.95;;;3.80;82.50;;;;;;5092593;28;20091;-36
2021/05/03 01:24:21;;;;;;;11.05;6.78;;;3.80;82.30;;;;;;5091171;28;20036;-36
2021/05/03 01:26:47;;;;;;;8.80;6.07;;;3.80;81.80;;;;;;5092615;28;20031;-36
2021/05/03 01:29:14;;;;;;;14.82;6.28;;;3.70;82.20;;;;;;5092816;28;20399;-36
2021/05/03 01:31:41;;;;;;;12.02;7.07;;;3.60;82.70;;;;;;5095976;28;20472;-36
2021/05/03 01:34:08;;;;;;;14.15;6.80;;;3.60;82.40;;;;;;5096726;28;20031;-35
2021/05/03 01:36:38;;;;;;;10.77;6.65;;;3.70;82.40;;;;;;5096763;28;20028;-35
2021/05/03 01:39:06;;;;;;;14.85;9.43;;;3.70;82.30;;;;;;5095075;28;20102;-36
2021/05/03 01:41:32;;;;;;;10.23;7.00;;;3.70;82.30;;;;;;5096947;28;20442;-36
2021/05/03 01:43:58;;;;;;;9.00;6.32;;;3.70;82.20;;;;;;5096749;28;20032;-36
2021/05/03 01:46:26;;;;;;;11.73;7.43;;;3.90;81.60;;;;;;5094727;28;20020;-36
2021/05/03 01:48:51;;;;;;;11.40;6.57;;;4.00;81.00;;;;;;5096141;28;20027;-38
2021/05/03 01:51:17;;;;;;;11.75;7.00;;;4.00;81.00;;;;;;5095887;28;20404;-35
2021/05/03 01:53:42;;;;;;;12.48;6.28;;;3.90;81.70;;;;;;5094817;28;20028;-35
2021/05/03 01:56:09;;;;;;;14.70;7.25;;;3.90;81.50;;;;;;5095929;28;20486;-36
2021/05/03 01:58:34;;;;;;;10.63;6.43;;;3.80;81.70;;;;;;5096072;28;20054;-36
2021/05/03 02:01:01;;;;;;;8.82;6.07;;;3.80;81.90;;;;;;5095674;28;20099;-36
2021/05/03 02:03:28;;;;;;;10.95;6.78;;;3.70;81.90;;;;;;5096151;28;20442;-36
2021/05/03 02:05:54;;;;;;;12.63;6.15;;;3.50;82.50;;;;;;5095740;28;20081;-36
2021/05/03 02:08:20;;;;;;;11.45;6.63;;;3.40;83.10;;;;;;5095854;28;20024;-36
2021/05/03 02:10:47;;;;;;;10.27;6.65;;;3.30;83.40;;;;;;5095617;28;20069;-36
2021/05/03 02:13:13;;;;;;;12.95;6.70;;;3.30;83.80;;;;;;5095658;28;20020;-36
2021/05/03 02:15:40;;;;;;;12.32;7.45;;;3.20;84.30;;;;;;5095616;28;20031;-36
2021/05/03 02:18:06;;;;;;;9.10;6.43;;;3.20;84.50;;;;;;5095412;28;20024;-36
2021/05/03 02:20:32;;;;;;;11.57;7.30;;;3.10;84.40;;;;;;5095442;28;20028;-36
2021/05/03 02:22:59;;;;;;;7.68;5.95;;;3.20;84.10;;;;;;5095595;28;20043;-36
2021/05/03 02:25:24;;;;;;;13.18;7.25;;;3.20;84.10;;;;;;5095175;28;20035;-36
2021/05/03 02:27:50;;;;;;;9.57;6.88;;;3.10;83.90;;;;;;5095536;28;20528;-36
2021/05/03 02:30:17;;;;;;;13.25;7.22;;;3.10;84.40;;;;;;5095453;28;20024;-36
2021/05/03 02:32:44;;;;;;;10.73;7.38;;;3.30;84.00;;;;;;5095305;28;20032;-35
2021/05/03 02:35:15;;;;;;;10.43;7.05;;;3.30;83.60;;;;;;5095283;28;20027;-35
2021/05/03 02:37:43;;;;;;;9.57;7.38;;;3.30;83.80;;;;;;5094877;28;20073;-35
2021/05/03 02:40:09;;;;;;;11.43;7.28;;;3.30;83.60;;;;;;5094897;28;20028;-36
2021/05/03 02:42:35;;;;;;;10.07;7.45;;;3.50;82.90;;;;;;5093950;28;20027;-35
2021/05/03 02:45:01;;;;;;;13.38;7.85;;;3.50;82.90;;;;;;5094898;28;20020;-36
2021/05/03 02:47:27;;;;;;;14.68;8.32;;;3.60;82.60;;;;;;5094035;28;20410;-35
2021/05/03 02:49:53;;;;;;;10.63;7.18;;;3.60;82.60;;;;;;5094531;28;20024;-36
2021/05/03 02:52:19;;;;;;;11.35;8.10;;;3.50;83.00;;;;;;5095084;28;20116;-36
2021/05/03 02:54:44;;;;;;;12.35;8.52;;;3.60;82.80;;;;;;5094637;28;20020;-36
2021/05/03 02:57:10;;;;;;;11.48;7.85;;;3.70;82.40;;;;;;5094723;28;20053;-36
2021/05/03 02:59:36;;;;;;;13.70;8.48;;;3.70;82.40;;;;;;5094678;28;20024;-36
2021/05/03 03:02:01;;;;;;;11.75;7.05;;;3.80;82.50;;;;;;5094923;28;20103;-36
2021/05/03 03:04:27;;;;;;;9.75;7.30;;;3.80;82.20;;;;;;5093359;28;20057;-36
2021/05/03 03:06:52;;;;;;;22.85;8.65;;;3.80;82.20;;;;;;5094746;28;20032;-36
2021/05/03 03:09:18;;;;;;;12.32;7.82;;;3.60;82.80;;;;;;5093199;28;20380;-35
2021/05/03 03:11:47;;;;;;;12.32;7.53;;;3.60;82.80;;;;;;5094382;28;20069;-35
2021/05/03 03:14:13;;;;;;;15.05;8.73;;;3.70;82.80;;;;;;5094307;28;20498;-36
2021/05/03 03:16:39;;;;;;;14.60;7.72;;;3.60;82.80;;;;;;5093082;28;20035;-36
2021/05/03 03:19:04;;;;;;;15.63;8.27;;;3.40;83.30;;;;;;5093196;28;20036;-36
2021/05/03 03:21:30;;;;;;;14.35;8.02;;;3.50;83.50;;;;;;5094499;28;20376;-36
2021/05/03 03:23:56;;;;;;;15.52;8.60;;;3.50;83.90;;;;;;5094129;28;20082;-36
2021/05/03 03:26:22;;;;;;;17.58;8.80;;;3.40;83.90;;;;;;5094068;28;20028;-36
2021/05/03 03:28:47;;;;;;;14.73;8.43;;;3.30;83.90;;;;;;5094337;28;20016;-36
2021/05/03 03:31:13;;;;;;;13.35;9.00;;;3.30;84.20;;;;;;5094035;28;20032;-36
2021/05/03 03:33:39;;;;;;;15.25;8.80;;;3.40;83.80;;;;;;5094010;28;20102;-36
2021/05/03 03:36:06;;;;;;;12.57;7.88;;;3.30;84.00;;;;;;5094204;28;20035;-36
2021/05/03 03:38:32;;;;;;;10.63;6.72;;;3.30;84.10;;;;;;5093362;28;20031;-35
2021/05/03 03:40:58;;;;;;;14.60;9.07;;;3.30;84.40;;;;;;5093919;28;20453;-36
2021/05/03 03:43:23;;;;;;;12.10;8.57;;;3.20;84.70;;;;;;5094161;28;20031;-36
2021/05/03 03:45:49;;;;;;;18.08;9.15;;;3.20;84.80;;;;;;5094091;28;20042;-35
2021/05/03 03:48:15;;;;;;;15.65;8.95;;;3.20;84.80;;;;;;5093804;28;20103;-36
2021/05/03 03:50:41;;;;;;;14.80;9.20;;;3.20;84.90;;;;;;5093703;28;20119;-36
2021/05/03 03:53:06;;;;;;;16.77;9.75;;;3.20;85.10;;;;;;5092294;28;20028;-36
2021/05/03 03:55:32;;;;;;;17.50;10.05;;;3.20;85.00;;;;;;5093970;28;20422;-36
2021/05/03 03:57:58;;;;;;;15.70;9.88;;;3.20;85.00;;;;;;5093850;28;20028;-36
2021/05/03 04:00:24;;;;;;;15.65;9.38;;;3.30;84.90;;;;;;5093842;28;20035;-36
2021/05/03 04:02:50;;;;;;;19.40;10.55;;;3.40;84.20;;;;;;5093861;28;20032;-36
2021/05/03 04:08:01;;;;;;;22.20;12.00;;;3.50;83.60;;;;;;5093825;28;20082;-36
2021/05/03 04:13:28;;;;;;;22.10;9.90;;;3.40;84.30;;;;;;5093657;28;20151;-36
2021/05/03 04:21:52;;;;;;;15.02;9.00;;;3.50;83.40;;;;;;5093576;28;20054;-36
2021/05/03 04:24:25;;;;;;;11.65;8.55;;;3.50;83.20;;;;;;5093253;28;20028;-35
2021/05/03 04:26:51;;;;;;;12.20;8.18;;;3.50;83.10;;;;;;5091829;28;20032;-36
2021/05/03 04:29:16;;;;;;;15.98;8.82;;;3.50;83.00;;;;;;5093145;28;20441;-35
2021/05/03 04:31:42;;;;;;;12.75;8.25;;;3.40;83.10;;;;;;5093209;28;20024;-37
2021/05/03 04:34:08;;;;;;;18.75;9.32;;;3.40;83.00;;;;;;5093262;28;20016;-34
2021/05/03 04:36:33;;;;;;;18.13;9.25;;;3.30;83.80;;;;;;5093119;28;20025;-34
2021/05/03 04:38:59;;;;;;;16.52;9.20;;;3.30;83.90;;;;;;5093166;28;20035;-35
2021/05/03 04:41:24;;;;;;;14.13;8.55;;;3.30;84.00;;;;;;5093111;28;20025;-35
2021/05/03 04:43:50;;;;;;;15.27;8.65;;;3.30;83.80;;;;;;5093274;28;20028;-34
2021/05/03 04:46:19;;;;;;;19.25;8.80;;;3.20;83.90;;;;;;5093139;28;20353;-35
2021/05/03 04:48:44;;;;;;;14.40;8.70;;;3.30;83.90;;;;;;5092912;28;20088;-35
2021/05/03 04:51:10;;;;;;;16.98;9.80;;;3.40;83.30;;;;;;5092731;28;20551;-35
2021/05/03 04:53:36;;;;;;;13.60;8.75;;;3.40;83.10;;;;;;5092896;28;20020;-35
2021/05/03 04:56:03;;;;;;;12.50;7.53;;;3.30;83.60;;;;;;5091694;28;20369;-34
2021/05/03 04:58:30;;;;;;;10.73;7.45;;;3.40;84.00;;;;;;5092941;28;20101;-35
2021/05/03 05:00:55;;;;;;;14.23;8.68;;;3.50;83.10;;;;;;5093131;28;20491;-34
2021/05/03 05:03:22;;;;;;;17.20;8.60;;;3.50;82.80;;;;;;5093773;28;20052;-35
2021/05/03 05:05:50;;;;;;;13.80;9.18;;;3.50;83.00;;;;;;5094319;28;20400;-35
2021/05/03 05:08:16;;;;;;;14.70;8.02;;;3.60;82.70;;;;;;5096820;28;20020;-35
2021/05/03 05:10:41;;;;;;;15.20;10.07;;;3.70;82.40;;;;;;5095231;28;20456;-35
2021/05/03 05:13:07;;;;;;;15.32;8.57;;;3.70;82.50;;;;;;5096881;28;20077;-35
2021/05/03 05:15:33;;;;;;;13.65;8.10;;;3.70;82.80;;;;;;5096532;28;20099;-35
2021/05/03 05:17:59;;;;;;;20.40;9.80;;;3.90;81.90;;;;;;5096528;28;20055;-34
2021/05/03 05:20:25;;;;;;;15.80;8.77;;;3.90;81.80;;;;;;5095180;28;20032;-35
2021/05/03 05:22:51;;;;;;;11.50;8.25;;;4.00;81.60;;;;;;5096450;28;20024;-35
2021/05/03 05:25:17;;;;;;;13.68;8.73;;;4.00;81.70;;;;;;5096239;28;20406;-35
2021/05/03 05:27:42;;;;;;;15.32;10.55;;;4.30;80.90;;;;;;5095042;28;20024;-35
2021/05/03 05:30:09;;;;;;;14.77;9.27;;;4.30;80.70;;;;;;5096189;28;20028;-35
2021/05/03 05:32:34;;;;;;;13.50;9.20;;;4.40;80.30;;;;;;5096675;28;20016;-34
2021/05/03 05:35:00;;;;;;;13.27;8.48;;;4.60;79.60;;;;;;5096403;28;20109;-35
2021/05/03 05:37:26;;;;;;;14.65;8.65;;;4.80;79.10;;;;;;5077961;28;20085;-35
2021/05/03 05:39:52;;;;;;;15.30;8.38;;;4.90;78.90;;;;;;5096326;28;20135;-35
2021/05/03 05:42:17;;;;;;;11.10;7.75;;;4.90;78.60;;;;;;5095978;28;20024;-35
2021/05/03 05:44:43;;;;;;;11.50;8.13;;;5.00;78.30;;;;;;5096311;28;20066;-35
2021/05/03 05:47:09;;;;;;;14.55;9.65;;;5.10;77.70;;;;;;5094578;28;20123;-35
2021/05/03 05:49:34;;;;;;;11.52;8.77;;;5.20;77.30;;;;;;5094517;28;20032;-35
2021/05/03 05:52:00;;;;;;;14.82;8.52;;;5.20;78.00;;;;;;5095553;28;20110;-35
2021/05/03 05:54:26;;;;;;;15.10;8.48;;;5.30;77.70;;;;;;5095824;28;20032;-35
2021/05/03 05:56:54;;;;;;;16.65;8.27;;;5.30;77.30;;;;;;5095605;28;20046;-35
2021/05/03 05:59:20;;;;;;;18.40;10.98;;;5.40;77.00;;;;;;5095740;28;20100;-35
2021/05/03 06:01:46;;;;;;;18.27;7.28;;;5.60;75.90;;;;;;5095566;28;20085;-35
2021/05/03 06:04:12;;;;;;;12.98;8.23;;;5.80;76.20;;;;;;5094733;28;20107;-36
2021/05/03 06:06:37;;;;;;;19.20;9.13;;;5.80;75.50;;;;;;5095796;28;20027;-37
2021/05/03 06:09:03;;;;;;;12.25;7.90;;;6.00;75.00;;;;;;5095795;28;20028;-38
2021/05/03 06:11:29;;;;;;;13.85;7.88;;;6.10;74.10;;;;;;5095295;28;20034;-35
2021/05/03 06:13:55;;;;;;;12.45;8.13;;;6.10;74.00;;;;;;5094730;28;20095;-36
2021/05/03 06:16:20;;;;;;;12.82;8.20;;;6.30;73.00;;;;;;5094692;28;20038;-37
2021/05/03 06:18:46;;;;;;;13.60;7.55;;;6.30;72.80;;;;;;5094061;28;20082;-36
2021/05/03 06:21:13;;;;;;;12.27;8.60;;;6.40;73.10;;;;;;5094116;28;20038;-36
2021/05/03 06:23:38;;;;;;;11.65;7.65;;;6.80;71.90;;;;;;5094011;28;20032;-36
2021/05/03 06:26:04;;;;;;;10.82;7.53;;;6.90;70.70;;;;;;5095167;28;20417;-37
2021/05/03 06:28:29;;;;;;;11.18;7.32;;;7.10;70.40;;;;;;5095385;28;20028;-36
2021/05/03 06:30:57;;;;;;;10.90;7.22;;;7.00;70.00;;;;;;5095866;28;20052;-36
2021/05/03 06:33:24;;;;;;;10.90;6.63;;;7.20;69.60;;;;;;5095153;28;20107;-36
2021/05/03 06:35:50;;;;;;;10.70;7.22;;;7.40;69.90;;;;;;5093728;28;20058;-36
2021/05/03 06:38:16;;;;;;;18.90;9.68;;;7.30;69.30;;;;;;5093571;28;20066;-36
2021/05/03 06:40:42;;;;;;;10.30;6.53;;;7.60;68.80;;;;;;5094134;28;20524;-36
2021/05/03 06:43:08;;;;;;;10.52;6.75;;;7.70;67.90;;;;;;5095029;28;20032;-38
2021/05/03 06:45:34;;;;;;;10.90;6.07;;;7.50;68.60;;;;;;5094344;28;20075;-37
2021/05/03 06:48:02;;;;;;;8.32;6.00;;;7.40;68.10;;;;;;5094426;28;20024;-37
2021/05/03 06:50:28;;;;;;;10.45;6.13;;;7.40;68.10;;;;;;5094293;28;20064;-36
2021/05/03 06:52:54;;;;;;;21.48;6.43;;;7.50;67.50;;;;;;5094335;28;20077;-36
2021/05/03 06:55:20;;;;;;;7.68;5.18;;;7.70;66.50;;;;;;5094020;28;20028;-37
2021/05/03 06:57:45;;;;;;;9.38;5.60;;;7.90;65.80;;;;;;5093822;28;20024;-36
2021/05/03 07:00:13;;;;;;;7.22;5.03;;;7.90;65.90;;;;;;5094440;28;20077;-36
2021/05/03 07:02:40;;;;;;;9.75;6.32;;;8.20;64.80;;;;;;5094726;28;20042;-36
2021/05/03 07:05:06;;;;;;;9.68;5.38;;;8.30;64.30;;;;;;5094004;28;20085;-37
2021/05/03 07:07:32;;;;;;;10.07;5.63;;;8.20;63.90;;;;;;5093855;28;20049;-37
2021/05/03 07:09:59;;;;;;;11.98;4.50;;;8.00;64.30;;;;;;5094061;28;20107;-37
2021/05/03 07:12:25;;;;;;;9.18;5.35;;;8.00;63.50;;;;;;5093949;28;20028;-37
2021/05/03 07:14:52;;;;;;;8.40;5.53;;;8.00;63.20;;;;;;5094044;28;20028;-36
2021/05/03 07:17:17;;;;;;;10.02;5.70;;;8.30;62.00;;;;;;5093936;28;20081;-37
2021/05/03 07:19:44;;;;;;;7.35;4.97;;;8.40;61.20;;;;;;5095401;28;20028;-37
2021/05/03 07:22:11;;;;;;;13.23;5.43;;;8.30;61.70;;;;;;5092844;28;20115;-36
2021/05/03 07:24:39;;;;;;;8.70;5.10;;;8.60;61.30;;;;;;5093657;28;20117;-37
2021/05/03 07:27:11;;;;;;;10.15;5.65;;;8.50;60.80;;;;;;5093730;28;20031;-36
2021/05/03 07:29:38;;;;;;;17.08;7.28;;;8.90;59.60;;;;;;5075035;28;20031;-37
2021/05/03 07:32:05;;;;;;;6.93;4.43;;;8.80;59.50;;;;;;5093736;28;20101;-37
2021/05/03 07:34:30;;;;;;;14.98;7.20;;;8.90;58.40;;;;;;5094059;28;20016;-37
2021/05/03 07:36:56;;;;;;;8.55;4.95;;;8.90;57.80;;;;;;5094235;28;20098;-40
2021/05/03 07:39:22;;;;;;;8.23;4.65;;;8.80;57.10;;;;;;5093785;28;20039;-36
2021/05/03 07:41:48;;;;;;;12.20;5.05;;;8.80;57.50;;;;;;5092672;28;20028;-36
2021/05/03 07:44:14;;;;;;;8.68;4.28;;;9.20;56.70;;;;;;5093495;28;20074;-37
2021/05/03 07:46:40;;;;;;;9.10;4.50;;;9.20;55.80;;;;;;5093669;28;20070;-36
2021/05/03 07:49:06;;;;;;;10.85;5.05;;;9.20;55.20;;;;;;5094006;28;20031;-37
2021/05/03 07:51:32;;;;;;;6.28;3.38;;;9.80;53.40;;;;;;5092286;28;20044;-36
2021/05/03 07:54:02;;;;;;;7.20;4.75;;;9.90;52.10;;;;;;5093817;28;20078;-37
2021/05/03 07:56:32;;;;;;;5.07;3.63;;;9.80;51.80;;;;;;5092989;28;20056;-37
2021/05/03 07:58:58;;;;;;;4.78;4.22;;;9.90;51.80;;;;;;5093376;28;20032;-37
2021/05/03 08:01:24;;;;;;;8.55;4.40;;;9.30;53.40;;;;;;5092939;28;20036;-36
2021/05/03 08:03:50;;;;;;;5.72;3.33;;;9.80;51.10;;;;;;5093209;28;20069;-36
2021/05/03 08:06:15;;;;;;;4.53;3.13;;;10.20;48.90;;;;;;5092840;28;20024;-37
2021/05/03 08:08:43;;;;;;;5.45;3.95;;;10.10;49.80;;;;;;5093057;28;20046;-36
2021/05/03 08:11:10;;;;;;;9.00;3.60;;;9.70;49.10;;;;;;5093442;28;20043;-36
2021/05/03 08:13:36;;;;;;;7.00;3.53;;;10.10;49.30;;;;;;5093466;28;20021;-37
2021/05/03 08:16:04;;;;;;;9.65;3.90;;;10.80;47.00;;;;;;5093220;28;20383;-36
2021/05/03 08:18:30;;;;;;;6.32;4.18;;;11.00;46.60;;;;;;5092431;28;20028;-38
2021/05/03 08:20:57;;;;;;;7.53;3.92;;;10.90;46.90;;;;;;5092549;28;20039;-36
2021/05/03 08:23:24;;;;;;;6.15;3.50;;;11.00;46.60;;;;;;5092729;28;20028;-38
2021/05/03 08:25:51;;;;;;;7.57;3.67;;;11.00;46.30;;;;;;5092559;28;20028;-37
2021/05/03 08:28:18;;;;;;;6.30;3.50;;;10.60;46.40;;;;;;5092674;28;20048;-37
2021/05/03 08:30:45;;;;;;;9.35;3.90;;;11.10;45.30;;;;;;5092628;28;20024;-37
2021/05/03 08:33:11;;;;;;;4.55;3.53;;;11.30;44.70;;;;;;5092637;28;20376;-37
2021/05/03 08:35:37;;;;;;;4.30;3.10;;;11.80;43.40;;;;;;5092946;28;20020;-37
2021/05/03 08:38:04;;;;;;;6.22;3.60;;;11.80;43.40;;;;;;5093753;28;20081;-37
2021/05/03 08:40:31;;;;;;;8.90;3.78;;;12.60;42.40;;;;;;5094359;28;20016;-37
2021/05/03 08:43:00;;;;;;;5.82;3.58;;;12.80;41.30;;;;;;5095543;28;20020;-37
2021/05/03 08:45:26;;;;;;;8.05;4.00;;;12.70;42.00;;;;;;5096084;28;20023;-38
2021/05/03 08:48:04;;;;;;;7.72;4.80;;;11.60;43.50;;;;;;5097339;28;20083;-36
2021/05/03 08:53:24;;;;;;;7.60;4.68;;;11.80;43.40;;;;;;5096422;28;20017;-38
2021/05/03 08:55:50;;;;;;;6.00;4.43;;;11.80;43.00;;;;;;5096998;28;20433;-38
2021/05/03 08:58:16;;;;;;;14.38;5.03;;;12.00;43.20;;;;;;5096645;28;20111;-37
2021/05/03 09:00:41;;;;;;;10.98;5.47;;;12.80;42.00;;;;;;5096437;28;20507;-37
2021/05/03 09:03:11;;;;;;;13.50;5.20;;;13.00;41.80;;;;;;5096256;28;20024;-38
2021/05/03 09:05:38;;;;;;;12.88;5.50;;;13.60;39.70;;;;;;5095886;28;20073;-37
2021/05/03 09:08:04;;;;;;;16.52;6.53;;;13.30;40.10;;;;;;5096961;28;20024;-38
2021/05/03 09:10:31;;;;;;;11.70;5.82;;;12.80;41.30;;;;;;5096560;28;20117;-37
2021/05/03 09:13:13;;;;;;;8.38;4.22;;;12.80;41.30;;;;;;5095181;28;20031;-38
2021/05/03 09:15:40;;;;;;;10.38;4.88;;;12.30;42.20;;;;;;5096689;28;20020;-37
2021/05/03 09:18:06;;;;;;;11.93;5.57;;;13.20;40.80;;;;;;5095917;28;20027;-37
2021/05/03 09:20:33;;;;;;;7.15;3.88;;;13.70;40.00;;;;;;5096118;28;20028;-36
2021/05/03 09:25:46;;;;;;;11.65;6.15;;;14.20;37.80;;;;;;5096694;28;20020;-37
2021/05/03 09:28:14;;;;;;;10.70;5.82;;;13.70;38.70;;;;;;5096335;28;20066;-37
2021/05/03 09:30:59;;;;;;;6.85;4.45;;;13.80;39.40;;;;;;5096157;28;20102;-38
2021/05/03 09:33:30;;;;;;;10.05;5.28;;;14.80;37.20;;;;;;5096705;28;20099;-36
2021/05/03 09:35:56;;;;;;;11.35;5.45;;;15.30;35.80;;;;;;5094166;28;20080;-37
2021/05/03 09:38:41;;;;;;;10.77;4.75;;;15.10;36.00;;;;;;5095732;28;20024;-37
2021/05/03 09:41:19;;;;;;;8.18;5.25;;;15.10;35.80;;;;;;5094567;28;20046;-36
2021/05/03 09:43:50;;;;;;;9.27;4.72;;;14.80;36.60;;;;;;5096263;28;20517;-38
2021/05/03 09:46:39;;;;;;;7.10;4.53;;;14.20;37.20;;;;;;5094122;28;20110;-36
2021/05/03 09:49:07;;;;;;;9.18;5.30;;;13.80;37.30;;;;;;5095823;28;20433;-38
2021/05/03 09:51:34;;;;;;;9.32;5.07;;;13.50;38.20;;;;;;5095068;28;20071;-37
2021/05/03 09:54:26;;;;;;;8.45;4.53;;;13.70;37.90;;;;;;5095526;28;20050;-39
2021/05/03 09:57:06;;;;;;;11.50;4.80;;;14.40;36.70;;;;;;5095887;28;20036;-37
2021/05/03 09:59:44;;;;;;;8.40;4.40;;;14.20;37.50;;;;;;5094732;28;20475;-37
2021/05/03 10:02:34;;;;;;;9.50;5.35;;;14.20;36.60;;;;;;5094107;28;20586;-37
2021/05/03 10:05:08;;;;;;;9.05;5.03;;;14.30;36.60;;;;;;5095378;28;20158;-38
2021/05/03 10:07:37;;;;;;;6.55;4.75;;;14.10;37.20;;;;;;5095609;28;20036;-38
2021/05/03 10:12:34;;;;;;;12.98;4.78;;;13.90;36.50;;;;;;5095649;28;20376;-36
2021/05/03 10:15:04;;;;;;;8.65;4.97;;;14.90;35.80;;;;;;5094861;28;20024;-36
2021/05/03 10:17:31;;;;;;;6.47;4.63;;;15.60;34.00;;;;;;5095499;28;20032;-36
2021/05/03 10:19:59;;;;;;;5.05;3.70;;;14.50;35.60;;;;;;5095310;28;20074;-40
2021/05/03 10:22:26;;;;;;;11.55;5.22;;;13.50;36.70;;;;;;5093272;28;20039;-37
2021/05/03 10:24:55;;;;;;;10.68;5.45;;;14.50;35.50;;;;;;5094816;28;20036;-37
2021/05/03 10:27:23;;;;;;;8.70;5.97;;;14.80;34.30;;;;;;5094539;28;20027;-36
2021/05/03 10:30:24;;;;;;;7.90;4.72;;;15.40;33.70;;;;;;5093541;28;20021;-37
2021/05/03 10:32:58;;;;;;;6.25;4.72;;;14.90;34.10;;;;;;5092316;28;20502;-37
2021/05/03 10:35:26;;;;;;;5.57;4.55;;;14.20;35.60;;;;;;5093088;28;20107;-37
2021/05/03 10:37:54;;;;;;;8.68;5.10;;;14.30;35.10;;;;;;5094810;28;20069;-37
2021/05/03 10:40:19;;;;;;;9.27;5.15;;;14.70;34.90;;;;;;5094861;28;20103;-37
2021/05/03 10:43:04;;;;;;;6.57;5.65;;;14.80;34.30;;;;;;5094648;28;20063;-37
2021/05/03 10:46:49;;;;;;;6.80;5.00;;;14.00;35.50;;;;;;5094745;28;20028;-36
2021/05/03 10:57:26;;;;;;;12.65;5.93;;;14.50;35.40;;;;;;5112525;28;20032;-38
2021/05/03 10:59:55;;;;;;;7.43;5.43;;;13.90;36.20;;;;;;5098123;28;20052;-36
2021/05/03 11:02:26;;;;;;;7.28;4.43;;;14.20;35.90;;;;;;5092833;28;20024;-37
2021/05/03 11:05:15;;;;;;;6.10;4.30;;;14.90;34.50;;;;;;5092953;28;20072;-37
2021/05/03 11:08:06;;;;;;;7.22;4.28;;;14.30;35.30;;;;;;5094150;28;20028;-38
2021/05/03 11:10:53;;;;;;;7.63;4.82;;;13.80;36.40;;;;;;5094153;28;20055;-37
2021/05/03 11:13:37;;;;;;;7.93;5.38;;;13.90;36.20;;;;;;5094218;28;20024;-36
2021/05/03 11:16:24;;;;;;;8.80;4.95;;;14.80;34.40;;;;;;5094141;28;20027;-37
2021/05/03 11:18:50;;;;;;;5.53;4.82;;;14.80;34.30;;;;;;5093525;28;20038;-37
2021/05/03 11:21:17;;;;;;;7.55;6.75;;;14.60;34.30;;;;;;5095062;28;20198;-37
2021/05/03 11:23:44;;;;;;;7.40;5.10;;;15.00;33.80;;;;;;5094767;28;20027;-36
2021/05/03 11:26:32;;;;;;;7.03;5.47;;;14.90;33.70;;;;;;5094009;28;20020;-37
2021/05/03 11:29:06;;;;;;;12.07;6.40;;;14.80;33.90;;;;;;5094205;28;20062;-37
2021/05/03 11:31:33;;;;;;;7.07;5.03;;;14.30;34.90;;;;;;5093990;28;20020;-37
2021/05/03 11:34:07;;;;;;;8.82;5.18;;;14.30;35.20;;;;;;5094260;28;20099;-37
2021/05/03 11:36:38;;;;;;;8.43;5.43;;;14.10;36.10;;;;;;5093993;28;20020;-36
2021/05/03 11:39:27;;;;;;;9.25;5.53;;;14.20;35.50;;;;;;5094013;28;20027;-37
2021/05/03 11:44:57;;;;;;;10.05;5.75;;;13.80;36.20;;;;;;5093580;28;20427;-38
2021/05/03 11:47:31;;;;;;;12.18;5.72;;;13.70;35.90;;;;;;5091920;28;20036;-38
2021/05/03 11:49:57;;;;;;;9.43;5.15;;;13.70;36.10;;;;;;5093433;28;20041;-39
2021/05/03 11:52:30;;;;;;;8.73;5.47;;;13.80;36.40;;;;;;5093450;28;20094;-38
2021/05/03 11:55:08;;;;;;;6.70;5.10;;;13.60;36.80;;;;;;5093284;28;20403;-38
2021/05/03 11:57:34;;;;;;;7.40;4.65;;;14.00;35.60;;;;;;5093186;28;20093;-38
2021/05/03 12:00:01;;;;;;;5.43;4.57;;;14.30;35.80;;;;;;5091495;28;20020;-38
2021/05/03 12:02:30;;;;;;;7.45;6.45;;;13.90;36.30;;;;;;5093679;28;20432;-38
2021/05/03 12:04:56;;;;;;;8.35;4.57;;;14.30;34.90;;;;;;5093412;28;20028;-39
2021/05/03 12:07:23;;;;;;;7.88;5.45;;;14.60;34.70;;;;;;5093496;28;20133;-38
2021/05/03 12:10:06;;;;;;;6.97;5.63;;;14.50;34.30;;;;;;5093219;28;20020;-38
2021/05/03 12:12:37;;;;;;;6.65;5.65;;;15.80;32.40;;;;;;5093601;28;20032;-37
2021/05/03 12:15:05;;;;;;;6.25;5.15;;;15.70;32.10;;;;;;5093101;28;20398;-38
2021/05/03 12:17:32;;;;;;;7.13;5.68;;;15.10;33.20;;;;;;5091998;28;20051;-38
2021/05/03 12:20:20;;;;;;;8.77;5.15;;;14.40;33.20;;;;;;5093607;28;20035;-38
2021/05/03 12:23:03;;;;;;;9.15;6.47;;;14.10;34.40;;;;;;5092484;28;20032;-38
2021/05/03 12:25:38;;;;;;;14.25;5.70;;;14.30;34.50;;;;;;5092777;28;20471;-38
2021/05/03 12:28:11;;;;;;;9.80;5.10;;;14.10;35.10;;;;;;5093466;28;20034;-38
2021/05/03 12:30:39;;;;;;;11.32;5.28;;;14.10;35.30;;;;;;5093820;28;20099;-38
2021/05/03 12:33:15;;;;;;;15.15;6.07;;;13.90;35.60;;;;;;5092871;28;20028;-37
2021/05/03 12:35:41;;;;;;;10.60;5.53;;;13.50;36.60;;;;;;5093116;28;20020;-37
2021/05/03 12:38:15;;;;;;;10.05;5.35;;;13.60;37.00;;;;;;5092876;28;20021;-37
2021/05/03 12:40:41;;;;;;;6.63;5.72;;;13.70;36.70;;;;;;5092583;28;20044;-38
2021/05/03 12:43:07;;;;;;;7.45;5.32;;;13.60;36.90;;;;;;5091929;28;20474;-38
2021/05/03 12:45:42;;;;;;;6.63;5.55;;;13.50;37.20;;;;;;5093455;28;20028;-37
2021/05/03 12:54:11;;;;;;;11.95;6.95;;;13.50;40.40;;;;;;5092664;28;20365;-38
2021/05/03 12:56:55;;;;;;;9.65;6.68;;;13.80;38.30;;;;;;5093334;28;20055;-38
2021/05/03 12:59:32;;;;;;;8.68;7.00;;;14.80;36.90;;;;;;5092511;28;20032;-37
2021/05/03 13:02:10;;;;;;;9.13;6.13;;;14.80;35.80;;;;;;5092670;28;20024;-38
2021/05/03 13:29:09;;;;;;;6.90;5.32;;;15.40;33.10;;;;;;5096220;28;20046;-38
2021/05/03 13:31:37;;;;;;;7.72;5.78;;;14.80;34.50;;;;;;5096230;28;20036;-39
2021/05/03 13:34:05;;;;;;;9.23;7.07;;;14.40;35.20;;;;;;5096739;28;20028;-37
2021/05/03 13:36:32;;;;;;;13.07;5.93;;;14.90;34.30;;;;;;5096999;28;20062;-36
2021/05/03 13:38:58;;;;;;;6.25;4.55;;;14.70;35.30;;;;;;5095993;28;20028;-37
2021/05/03 13:41:33;;;;;;;8.60;5.05;;;14.80;35.30;;;;;;5097892;28;20024;-39
2021/05/03 13:43:59;;;;;;;6.80;4.68;;;14.40;35.00;;;;;;5097497;28;20103;-37
2021/05/03 13:46:24;;;;;;;9.77;5.10;;;14.00;33.90;;;;;;5076534;28;20115;-38
2021/05/03 13:48:50;;;;;;;8.73;4.22;;;14.20;33.30;;;;;;5095546;28;20028;-38
2021/05/03 13:51:16;;;;;;;7.90;4.18;;;14.50;32.90;;;;;;5095621;28;20067;-39
2021/05/03 13:53:41;;;;;;;8.80;4.72;;;14.80;32.80;;;;;;5095667;28;20047;-38
2021/05/03 13:56:07;;;;;;;7.53;4.85;;;15.00;32.50;;;;;;5095622;28;20107;-38